| time (UTC) | temp F | wind direction | speed MPH | gust MPH | rain 1hr in | rain 24hr in | rain mn in | humidity % | barometer mb |
| 20260902231524 | 75 | 5 | 3.0 | 12.0 | 0.10 | 0.13 | 0.13 | 88 | 1012.5 |
| 20260902230020 | 77 | 229 | 5.0 | 27.0 | 0.08 | 0.11 | 0.11 | 90 | 1012.7 |
| 20260902224518 | 77 | 217 | 2.0 | 7.0 | 0.00 | 0.03 | 0.03 | 89 | 1010.7 |
| 20260902223018 | 78 | 212 | 2.0 | 8.0 | 0.00 | 0.03 | 0.03 | 88 | 1011.5 |
| 20260902221521 | 78 | 151 | 2.0 | 7.0 | 0.00 | 0.03 | 0.03 | 87 | 1011.0 |
| 20260902220026 | 79 | 250 | 2.0 | 7.0 | 0.00 | 0.03 | 0.03 | 87 | 1011.0 |
| 20260902214516 | 80 | 232 | 3.0 | 6.0 | 0.00 | 0.03 | 0.03 | 85 | 1010.6 |
| 20260902213015 | 81 | 200 | 2.0 | 7.0 | 0.00 | 0.03 | 0.03 | 83 | 1010.3 |
| 20260902211513 | 81 | 213 | 2.0 | 9.0 | 0.00 | 0.03 | 0.03 | 84 | 1010.7 |
| 20260902210026 | 80 | 202 | 4.0 | 10.0 | 0.00 | 0.03 | 0.03 | 86 | 1011.0 |
| 20260902204510 | 79 | 220 | 1.0 | 10.0 | 0.00 | 0.03 | 0.03 | 86 | 1011.1 |
| 20260902203005 | 80 | 278 | 1.0 | 8.0 | 0.00 | 0.03 | 0.03 | 85 | 1011.7 |
| 20260902201504 | 80 | 235 | 1.0 | 13.0 | 0.00 | 0.03 | 0.03 | 84 | 1012.1 |
| 20260902200101 | 81 | 239 | 3.0 | 7.0 | 0.00 | 0.03 | 0.03 | 82 | 1012.5 |
| 20260902194600 | 82 | 227 | 3.0 | 11.0 | 0.00 | 0.03 | 0.03 | 81 | 1012.7 |
| 20260902193059 | 83 | 164 | 3.0 | 12.0 | 0.00 | 0.03 | 0.03 | 78 | 1013.0 |
| 20260902191603 | 83 | 228 | 2.0 | 13.0 | 0.00 | 0.03 | 0.03 | 79 | 1012.9 |
| 20260902190055 | 82 | 212 | 3.0 | 9.0 | 0.00 | 0.03 | 0.03 | 80 | 1013.1 |
| 20260902184554 | 82 | 202 | 4.0 | 11.0 | 0.00 | 0.03 | 0.03 | 79 | 1013.1 |
| 20260902183053 | 82 | 228 | 1.0 | 7.0 | 0.00 | 0.03 | 0.03 | 80 | 1013.0 |
| 20260902181602 | 81 | 196 | 2.0 | 10.0 | 0.00 | 0.03 | 0.03 | 81 | 1013.1 |
| 20260902180106 | 81 | 228 | 2.0 | 8.0 | 0.00 | 0.03 | 0.03 | 83 | 1013.1 |
| 20260902174544 | 80 | 155 | 4.0 | 8.0 | 0.00 | 0.03 | 0.03 | 86 | 1013.2 |
| 20260902173040 | 78 | 204 | 1.0 | 7.0 | 0.00 | 0.03 | 0.03 | 90 | 1013.5 |
| 20260902171537 | 77 | 241 | 2.0 | 6.0 | 0.01 | 0.03 | 0.03 | 93 | 1013.8 |
| 20260902170035 | 75 | 231 | 2.0 | 5.0 | 0.03 | 0.03 | 0.03 | 94 | 1013.9 |
| 20260902164534 | 74 | 238 | 0.0 | 2.0 | 0.03 | 0.03 | 0.03 | 93 | 1014.6 |
| 20260902163033 | 74 | 250 | 2.0 | 7.0 | 0.03 | 0.03 | 0.03 | 92 | 1013.9 |
| 20260902161532 | 75 | 188 | 2.0 | 7.0 | 0.02 | 0.02 | 0.02 | 90 | 1013.8 |
| 20260902160036 | 76 | 226 | 1.0 | 5.0 | 0.00 | 0.00 | 0.00 | 88 | 1013.9 |
| 20260902154529 | 76 | 208 | 1.0 | 7.0 | 0.00 | 0.00 | 0.00 | 88 | 1014.3 |
| 20260902153037 | 76 | 254 | 2.0 | 7.0 | 0.00 | 0.00 | 0.00 | 88 | 1014.3 |
| 20260902151525 | 75 | 147 | 0.0 | 5.0 | 0.00 | 0.00 | 0.00 | 90 | 1014.2 |
| 20260902150025 | 75 | 225 | 3.0 | 7.0 | 0.00 | 0.00 | 0.00 | 89 | 1014.5 |
| 20260902144534 | 75 | 200 | 3.0 | 7.0 | 0.00 | 0.00 | 0.00 | 89 | 1014.8 |
| 20260902143020 | 75 | 223 | 4.0 | 10.0 | 0.00 | 0.00 | 0.00 | 92 | 1014.9 |
| 20260902141516 | 74 | 171 | 6.0 | 10.0 | 0.00 | 0.00 | 0.00 | 92 | 1014.6 |
| 20260902140013 | 74 | 211 | 5.0 | 12.0 | 0.00 | 0.00 | 0.00 | 93 | 1014.6 |
| 20260902134514 | 73 | 213 | 3.0 | 9.0 | 0.00 | 0.00 | 0.00 | 94 | 1014.7 |
| 20260902133005 | 73 | 160 | 0.0 | 3.0 | 0.00 | 0.00 | 0.00 | 94 | 1014.7 |
| 20260902131503 | 73 | 292 | 0.0 | 3.0 | 0.00 | 0.00 | 0.00 | 94 | 1014.8 |
| 20260902130104 | 73 | 305 | 0.0 | 3.0 | 0.00 | 0.00 | 0.00 | 94 | 1014.8 |
| 20260902124553 | 73 | 305 | 1.0 | 3.0 | 0.00 | 0.00 | 0.00 | 94 | 1014.8 |
| 20260902123052 | 73 | 296 | 1.0 | 9.0 | 0.00 | 0.00 | 0.00 | 94 | 1014.4 |
| 20260902121544 | 72 | 241 | 2.0 | 9.0 | 0.00 | 0.00 | 0.00 | 95 | 1013.7 |
| 20260902120046 | 72 | 240 | 2.0 | 9.0 | 0.00 | 0.00 | 0.00 | 97 | 1012.9 |
| 20260902114538 | 72 | 217 | 3.0 | 12.0 | 0.00 | 0.00 | 0.00 | 98 | 1013.0 |
| 20260902113038 | 71 | 193 | 2.0 | 5.0 | 0.00 | 0.00 | 0.00 | 98 | 1013.4 |
| 20260902111537 | 71 | 166 | 2.0 | 7.0 | 0.00 | 0.00 | 0.00 | 98 | 1013.3 |
| 20260902110031 | 71 | 168 | 2.0 | 6.0 | 0.00 | 0.00 | 0.00 | 98 | 1012.9 |
| 20260902104539 | 71 | 166 | 1.0 | 6.0 | 0.00 | 0.00 | 0.00 | 98 | 1012.4 |
| 20260902103033 | 71 | 166 | 1.0 | 6.0 | 0.00 | 0.00 | 0.00 | 98 | 1012.3 |
| 20260902101536 | 71 | 171 | 2.0 | 4.0 | 0.00 | 0.00 | 0.00 | 98 | 1012.7 |
| 20260902100030 | 71 | 171 | 0.0 | 3.0 | 0.00 | 0.00 | 0.00 | 98 | 1012.3 |
| 20260902094532 | 71 | 171 | 0.0 | 5.0 | 0.00 | 0.00 | 0.00 | 98 | 1012.4 |
| 20260902093035 | 71 | 171 | 1.0 | 5.0 | 0.00 | 0.00 | 0.00 | 98 | 1012.7 |
| 20260902091526 | 71 | 170 | 0.0 | 4.0 | 0.00 | 0.00 | 0.00 | 98 | 1012.8 |
| 20260902090023 | 71 | 170 | 0.0 | 4.0 | 0.00 | 0.00 | 0.00 | 98 | 1013.1 |
| 20260902084521 | 71 | 171 | 1.0 | 4.0 | 0.00 | 0.00 | 0.00 | 98 | 1013.1 |
| 20260902083019 | 70 | 171 | 0.0 | 2.0 | 0.00 | 0.00 | 0.00 | 98 | 1013.3 |
| 20260902081517 | 70 | 171 | 0.0 | 3.0 | 0.00 | 0.00 | 0.00 | 98 | 1013.5 |
| 20260902080016 | 70 | 171 | 0.0 | 1.0 | 0.00 | 0.00 | 0.00 | 98 | 1013.7 |
| 20260902074515 | 70 | 171 | 0.0 | 3.0 | 0.00 | 0.00 | 0.00 | 98 | 1013.6 |
| 20260902073014 | 69 | 171 | 0.0 | 1.0 | 0.00 | 0.00 | 0.00 | 97 | 1013.7 |
| 20260902071513 | 69 | 171 | 0.0 | 2.0 | 0.00 | 0.00 | 0.00 | 97 | 1013.7 |
| 20260902070012 | 68 | 171 | 0.0 | 1.0 | 0.00 | 0.00 | 0.00 | 97 | 1013.8 |
| 20260902064511 | 68 | 171 | 0.0 | 1.0 | 0.00 | 0.00 | 0.00 | 96 | 1013.8 |
| 20260902063010 | 68 | 171 | 0.0 | 0.0 | 0.00 | 0.00 | 0.00 | 96 | 1013.8 |
| 20260902061518 | 68 | 171 | 0.0 | 1.0 | 0.00 | 0.00 | 0.00 | 96 | 1013.8 |
| 20260902060008 | 69 | 171 | 0.0 | 1.0 | 0.00 | 0.00 | 0.00 | 96 | 1013.9 |
| 20260902054507 | 69 | 171 | 0.0 | 1.0 | 0.00 | 0.00 | 0.00 | 96 | 1013.9 |
| 20260902053007 | 69 | 171 | 0.0 | 0.0 | 0.00 | 0.00 | 0.00 | 96 | 1014.0 |
| 20260902051504 | 70 | 171 | 0.0 | 0.0 | 0.00 | 0.00 | 0.00 | 96 | 1013.9 |
| 20260902050009 | 70 | 171 | 0.0 | 0.0 | 0.00 | 0.00 | 0.00 | 96 | 1013.7 |
| 20260902044503 | 70 | 171 | 0.0 | 0.0 | 0.00 | 0.00 | 0.00 | 96 | 1013.7 |
| 20260902043100 | 70 | 171 | 0.0 | 0.0 | 0.00 | 0.00 | 0.00 | 96 | 1013.7 |
| 20260902043002 | 70 | 171 | 0.0 | 0.0 | 0.00 | 0.00 | 0.00 | 96 | 1013.7 |
| 20260902041558 | 70 | 171 | 0.0 | 0.0 | 0.00 | 0.00 | 0.00 | 96 | 1013.7 |
| 20260902040057 | 70 | 171 | 0.0 | 0.0 | 0.00 | 0.00 | 0.00 | 96 | 1013.7 |
| 20260902034601 | 70 | 171 | 0.0 | 1.0 | 0.00 | 0.02 | 0.00 | 95 | 1013.5 |
| 20260902033106 | 70 | 171 | 0.0 | 0.0 | 0.00 | 0.02 | 0.00 | 95 | 1013.5 |
| 20260902031557 | 71 | 171 | 0.0 | 0.0 | 0.00 | 0.02 | 0.00 | 95 | 1013.5 |
| 20260902030054 | 71 | 171 | 0.0 | 1.0 | 0.00 | 0.02 | 0.00 | 95 | 1013.4 |
| 20260902024601 | 71 | 171 | 0.0 | 0.0 | 0.00 | 0.02 | 0.00 | 95 | 1013.5 |
| 20260902023053 | 71 | 171 | 0.0 | 0.0 | 0.00 | 0.02 | 0.00 | 95 | 1013.4 |
| 20260902021606 | 72 | 171 | 0.0 | 0.0 | 0.00 | 0.02 | 0.00 | 95 | 1013.6 |
| 20260902020053 | 72 | 171 | 0.0 | 0.0 | 0.00 | 0.02 | 0.00 | 95 | 1013.5 |
| 20260902014551 | 73 | 171 | 0.0 | 1.0 | 0.00 | 0.02 | 0.00 | 95 | 1013.5 |
| 20260902013053 | 73 | 171 | 0.0 | 2.0 | 0.00 | 0.02 | 0.00 | 96 | 1013.5 |
| 20260902011550 | 73 | 171 | 0.0 | 1.0 | 0.00 | 0.02 | 0.00 | 95 | 1013.4 |
| 20260902010053 | 73 | 171 | 0.0 | 1.0 | 0.00 | 0.02 | 0.00 | 95 | 1013.3 |
| 20260902004549 | 74 | 171 | 0.0 | 2.0 | 0.00 | 0.02 | 0.00 | 94 | 1013.0 |
| 20260902003049 | 74 | 170 | 2.0 | 4.0 | 0.00 | 0.02 | 0.00 | 94 | 1013.0 |
| 20260902001548 | 74 | 170 | 0.0 | 2.0 | 0.00 | 0.02 | 0.00 | 92 | 1012.9 |
| 20260902000048 | 75 | 170 | 0.0 | 1.0 | 0.00 | 0.02 | 0.00 | 91 | 1012.8 |
| 20260901234554 | 75 | 170 | 0.0 | 1.0 | 0.00 | 0.02 | 0.00 | 91 | 1012.9 |
| 20260901233050 | 76 | 170 | 0.0 | 2.0 | 0.00 | 0.02 | 0.00 | 91 | 1012.9 |